createdAt,value
2023-05-18T00:02:21.440Z,9.16
2023-05-18T00:04:48.525Z,9.17
2023-05-18T00:07:15.533Z,9.19
2023-05-18T00:09:42.463Z,9.17
2023-05-18T00:12:10.001Z,9.19
2023-05-18T00:14:37.315Z,9.20
2023-05-18T00:17:04.266Z,9.18
2023-05-18T00:19:31.548Z,9.10
2023-05-18T00:21:58.580Z,9.07
2023-05-18T00:24:25.567Z,9.09
2023-05-18T00:26:52.651Z,9.07
2023-05-18T00:29:19.738Z,9.03
2023-05-18T00:31:46.706Z,9.07
2023-05-18T00:34:15.908Z,9.02
2023-05-18T00:36:42.997Z,8.99
2023-05-18T00:39:10.202Z,9.01
2023-05-18T00:41:37.195Z,9.02
2023-05-18T00:44:05.006Z,9.03
2023-05-18T00:46:32.732Z,9.03
2023-05-18T00:49:01.982Z,8.94
2023-05-18T00:51:29.919Z,9.05
2023-05-18T00:53:57.573Z,9.07
2023-05-18T00:56:25.027Z,9.01
2023-05-18T00:58:57.192Z,9.03
2023-05-18T01:01:34.618Z,9.03
2023-05-18T01:04:04.015Z,9.03
2023-05-18T01:06:36.040Z,9.03
2023-05-18T01:09:06.916Z,9.00
2023-05-18T01:11:56.614Z,9.14
2023-05-18T01:14:50.004Z,9.12
2023-05-18T01:17:40.540Z,9.15
2023-05-18T01:20:33.526Z,9.17
2023-05-18T01:23:44.856Z,9.19
2023-05-18T01:26:29.846Z,9.18
2023-05-18T01:29:04.282Z,9.15
2023-05-18T01:31:31.497Z,9.13
2023-05-18T01:33:58.821Z,9.15
2023-05-18T01:36:25.951Z,9.14
2023-05-18T01:38:53.735Z,9.17
2023-05-18T01:41:25.681Z,9.17
2023-05-18T01:44:19.362Z,9.02
2023-05-18T01:46:55.150Z,9.14
2023-05-18T01:49:43.550Z,9.15
2023-05-18T01:52:16.854Z,9.10
2023-05-18T01:54:46.145Z,9.13
2023-05-18T01:57:13.086Z,9.13
2023-05-18T01:59:41.445Z,9.10
2023-05-18T02:02:08.854Z,9.02
2023-05-18T02:04:35.869Z,8.96
2023-05-18T02:07:03.275Z,9.02
2023-05-18T02:09:30.155Z,8.98
2023-05-18T02:11:56.998Z,9.06
2023-05-18T02:14:23.864Z,9.06
2023-05-18T02:16:53.041Z,9.05
2023-05-18T02:19:21.323Z,9.00
2023-05-18T02:21:48.389Z,9.07
2023-05-18T02:24:15.311Z,9.06
2023-05-18T02:26:42.297Z,9.10
2023-05-18T02:29:11.990Z,9.08
2023-05-18T02:31:39.219Z,9.07
2023-05-18T02:34:06.874Z,9.10
2023-05-18T02:36:37.266Z,9.09
2023-05-18T02:39:04.960Z,9.12
2023-05-18T02:41:32.425Z,9.05
2023-05-18T02:43:59.581Z,9.08
2023-05-18T02:46:26.573Z,9.13
2023-05-18T02:48:53.702Z,9.12
2023-05-18T02:51:21.698Z,8.91
2023-05-18T02:53:48.960Z,8.97
2023-05-18T02:56:17.721Z,8.97
2023-05-18T02:58:45.112Z,9.06
2023-05-18T03:01:12.369Z,9.08
2023-05-18T03:03:42.095Z,9.07
2023-05-18T03:06:09.845Z,9.02
2023-05-18T03:08:37.298Z,8.90
2023-05-18T03:11:04.608Z,8.90
2023-05-18T03:13:31.460Z,8.88
2023-05-18T03:15:58.606Z,8.91
2023-05-18T03:18:25.666Z,8.94
2023-05-18T03:20:52.723Z,8.92
2023-05-18T03:23:20.371Z,8.96
2023-05-18T03:25:47.245Z,8.99
2023-05-18T03:28:14.091Z,8.94
2023-05-18T03:30:40.941Z,8.99
2023-05-18T03:33:07.874Z,8.94
2023-05-18T03:35:34.742Z,8.94
2023-05-18T03:38:01.695Z,8.92
2023-05-18T03:40:29.252Z,8.99
2023-05-18T03:42:56.219Z,8.99
2023-05-18T03:45:23.305Z,8.90
2023-05-18T03:47:50.523Z,8.93
2023-05-18T03:50:17.419Z,9.01
2023-05-18T03:52:44.789Z,9.00
2023-05-18T03:55:12.142Z,9.01
2023-05-18T03:57:39.432Z,9.00
2023-05-18T04:00:13.166Z,9.01
2023-05-18T04:02:40.587Z,9.09
2023-05-18T04:05:08.350Z,9.08
2023-05-18T04:07:44.059Z,9.18
2023-05-18T04:10:13.097Z,9.05
2023-05-18T04:12:40.773Z,9.20
2023-05-18T04:15:08.453Z,9.32
2023-05-18T04:17:35.731Z,9.35
2023-05-18T04:20:11.535Z,9.45
2023-05-18T04:22:43.278Z,9.45
2023-05-18T04:25:13.918Z,9.48
2023-05-18T04:27:43.426Z,9.60
2023-05-18T04:30:11.838Z,9.69
2023-05-18T04:32:42.696Z,9.84
2023-05-18T04:35:11.611Z,9.98
2023-05-18T04:37:42.848Z,10.03
2023-05-18T04:40:14.170Z,10.20
2023-05-18T04:42:48.485Z,10.24
2023-05-18T04:45:20.422Z,10.47
2023-05-18T04:47:53.240Z,10.58
2023-05-18T04:50:23.639Z,10.60
2023-05-18T04:52:51.850Z,10.73
2023-05-18T04:55:28.696Z,10.81
2023-05-18T04:57:57.251Z,10.91
2023-05-18T05:00:26.229Z,11.06
2023-05-18T05:02:54.327Z,11.08
2023-05-18T05:05:22.760Z,11.23
2023-05-18T05:07:51.669Z,11.39
2023-05-18T05:10:20.677Z,11.52
2023-05-18T05:12:49.701Z,11.60
2023-05-18T05:15:17.719Z,11.74
2023-05-18T05:17:46.221Z,11.77
2023-05-18T05:20:13.121Z,12.04
2023-05-18T05:22:40.165Z,12.12
2023-05-18T05:25:08.334Z,12.17
2023-05-18T05:27:35.305Z,12.04
2023-05-18T05:30:02.618Z,11.96
2023-05-18T05:32:29.590Z,11.87
2023-05-18T05:34:56.500Z,11.78
2023-05-18T05:37:23.379Z,11.66
2023-05-18T05:39:50.217Z,11.64
2023-05-18T05:42:17.159Z,11.90
2023-05-18T05:44:44.872Z,12.02
2023-05-18T05:47:11.902Z,12.62
2023-05-18T05:49:38.814Z,12.58
2023-05-18T05:52:06.134Z,13.01
2023-05-18T05:54:33.012Z,13.02
2023-05-18T05:57:00.195Z,13.16
2023-05-18T05:59:27.200Z,13.37
2023-05-18T06:01:54.100Z,13.83
2023-05-18T06:04:21.114Z,14.19
2023-05-18T06:06:49.375Z,14.57
2023-05-18T06:09:16.401Z,15.01
2023-05-18T06:11:43.364Z,15.14
2023-05-18T06:14:10.198Z,15.19
2023-05-18T06:16:37.103Z,15.67
2023-05-18T06:19:04.125Z,16.07
2023-05-18T06:21:31.672Z,15.83
2023-05-18T06:23:58.527Z,16.01
2023-05-18T06:26:25.360Z,15.76
2023-05-18T06:28:52.209Z,15.23
2023-05-18T06:31:19.182Z,14.96
2023-05-18T06:33:46.050Z,15.38
2023-05-18T06:36:12.929Z,15.66
2023-05-18T06:38:39.789Z,16.21
2023-05-18T06:41:06.668Z,16.33
2023-05-18T06:43:33.519Z,15.56
2023-05-18T06:46:00.408Z,15.12
2023-05-18T06:48:28.612Z,15.17
2023-05-18T06:50:56.119Z,15.56
2023-05-18T06:53:23.412Z,15.74
2023-05-18T06:55:50.419Z,15.96
2023-05-18T06:58:17.323Z,16.29
2023-05-18T07:00:44.197Z,16.47
2023-05-18T07:03:11.361Z,16.45
2023-05-18T07:05:39.571Z,16.23
2023-05-18T07:08:07.226Z,16.12
2023-05-18T07:10:35.648Z,16.70
2023-05-18T07:13:02.609Z,16.65
2023-05-18T07:15:29.889Z,16.37
2023-05-18T07:17:57.154Z,16.95
2023-05-18T07:20:26.171Z,17.31
2023-05-18T07:22:55.265Z,17.60
2023-05-18T07:25:23.198Z,17.01
2023-05-18T07:27:54.459Z,16.98
2023-05-18T07:30:22.599Z,17.37
2023-05-18T07:32:51.029Z,17.63
2023-05-18T07:35:20.187Z,18.16
2023-05-18T07:37:47.064Z,18.40
2023-05-18T07:40:13.971Z,18.67
2023-05-18T07:42:41.799Z,18.74
2023-05-18T07:45:09.583Z,19.00
2023-05-18T07:47:36.560Z,19.26
2023-05-18T07:50:03.893Z,19.10
2023-05-18T07:52:30.986Z,19.38
2023-05-18T07:54:57.903Z,19.48
2023-05-18T07:57:25.320Z,19.92
2023-05-18T07:59:52.348Z,19.63
2023-05-18T08:02:19.976Z,19.55
2023-05-18T08:04:48.083Z,20.09
2023-05-18T08:07:15.070Z,20.40
2023-05-18T08:09:41.942Z,19.82
2023-05-18T08:12:09.165Z,20.23
2023-05-18T08:14:36.329Z,20.65
2023-05-18T08:17:04.782Z,20.41
2023-05-18T08:19:32.025Z,20.42
2023-05-18T08:21:59.132Z,20.29
2023-05-18T08:24:26.026Z,20.36
2023-05-18T08:26:53.151Z,20.47
2023-05-18T08:29:20.147Z,19.75
2023-05-18T08:31:49.255Z,19.52
2023-05-18T08:34:16.695Z,19.58
2023-05-18T08:36:45.627Z,18.36
2023-05-18T08:39:13.155Z,18.88
2023-05-18T08:41:55.102Z,18.48
2023-05-18T08:44:26.453Z,18.83
2023-05-18T08:46:54.808Z,19.14
2023-05-18T08:49:22.144Z,18.77
2023-05-18T08:51:57.122Z,18.92
2023-05-18T08:54:24.500Z,18.33
2023-05-18T08:56:53.672Z,18.42
2023-05-18T08:59:25.604Z,18.71
2023-05-18T09:01:54.926Z,18.53
2023-05-18T09:04:22.399Z,18.64
2023-05-18T09:06:49.867Z,18.16
2023-05-18T09:09:18.129Z,18.66
2023-05-18T09:11:47.088Z,19.02
2023-05-18T09:14:14.365Z,19.16
2023-05-18T09:16:41.478Z,18.91
2023-05-18T09:19:08.409Z,18.55
2023-05-18T09:21:35.761Z,18.58
2023-05-18T09:24:02.730Z,19.27
2023-05-18T09:26:29.694Z,19.61
2023-05-18T09:28:56.586Z,19.73
2023-05-18T09:31:24.869Z,20.53
2023-05-18T09:33:52.676Z,20.44
2023-05-18T09:36:26.090Z,19.31
2023-05-18T09:38:53.421Z,18.51
2023-05-18T09:41:20.295Z,18.24
2023-05-18T09:43:51.422Z,18.75
2023-05-18T09:46:20.620Z,18.85
2023-05-18T09:48:53.066Z,19.51
2023-05-18T09:51:21.809Z,19.46
2023-05-18T09:53:56.922Z,19.17
2023-05-18T09:56:27.369Z,19.39
2023-05-18T09:58:55.161Z,20.18
2023-05-18T10:01:22.164Z,19.64
2023-05-18T10:03:49.936Z,19.48
2023-05-18T10:06:21.069Z,18.49
2023-05-18T10:08:48.082Z,19.08
2023-05-18T10:11:19.836Z,19.64
2023-05-18T10:13:47.126Z,19.87
2023-05-18T10:16:16.720Z,19.43
2023-05-18T10:18:44.261Z,19.63
2023-05-18T10:21:14.340Z,19.45
2023-05-18T10:23:41.666Z,19.63
2023-05-18T10:26:10.039Z,19.05
2023-05-18T10:28:47.231Z,18.90
2023-05-18T10:31:16.745Z,19.12
2023-05-18T10:33:44.758Z,18.90
2023-05-18T10:36:12.087Z,18.91
2023-05-18T10:38:43.501Z,18.83
2023-05-18T10:41:12.459Z,19.44
2023-05-18T10:43:41.648Z,18.90
2023-05-18T10:46:09.673Z,18.95
2023-05-18T10:48:40.457Z,19.40
2023-05-18T10:51:08.326Z,19.36
2023-05-18T10:53:36.848Z,19.40
2023-05-18T10:56:04.106Z,19.19
2023-05-18T10:58:32.099Z,19.57
2023-05-18T11:01:06.282Z,19.43
2023-05-18T11:03:33.886Z,20.25
2023-05-18T11:06:10.319Z,20.68
2023-05-18T11:08:51.761Z,21.28
2023-05-18T11:11:26.202Z,21.50
2023-05-18T11:13:53.175Z,21.66
2023-05-18T11:16:20.949Z,21.42
2023-05-18T11:18:51.529Z,21.92
2023-05-18T11:21:22.176Z,21.88
2023-05-18T11:24:24.817Z,22.17
2023-05-18T11:27:00.314Z,22.52
2023-05-18T11:29:36.059Z,22.29
2023-05-18T11:32:04.833Z,21.96
2023-05-18T11:34:45.461Z,21.13
2023-05-18T11:37:15.005Z,20.12
2023-05-18T11:39:55.426Z,19.81
2023-05-18T11:42:34.133Z,19.84
2023-05-18T11:45:08.887Z,19.62
2023-05-18T11:47:37.010Z,19.80
2023-05-18T11:50:08.557Z,20.45
2023-05-18T11:52:51.712Z,21.53
2023-05-18T11:55:21.036Z,21.78
2023-05-18T11:57:52.403Z,21.01
2023-05-18T12:00:21.016Z,20.98
2023-05-18T12:02:49.255Z,20.54
2023-05-18T12:05:17.161Z,20.65
2023-05-18T12:07:45.086Z,20.52
2023-05-18T12:10:17.468Z,20.32
2023-05-18T12:12:48.300Z,19.56
2023-05-18T12:15:17.181Z,19.68
2023-05-18T12:17:47.283Z,19.28
2023-05-18T12:20:27.266Z,19.35
2023-05-18T12:22:55.965Z,19.70
2023-05-18T12:25:25.887Z,19.50
2023-05-18T12:27:54.385Z,19.80
2023-05-18T12:30:34.457Z,19.74
2023-05-18T12:33:02.526Z,19.75
2023-05-18T12:35:31.496Z,19.28
2023-05-18T12:38:03.153Z,19.46
2023-05-18T12:40:44.475Z,19.22
2023-05-18T12:43:11.847Z,18.96
2023-05-18T12:45:38.886Z,18.55
2023-05-18T12:48:11.124Z,18.93
2023-05-18T12:50:53.068Z,19.26
2023-05-18T12:53:20.048Z,19.16
2023-05-18T12:55:59.768Z,19.97
2023-05-18T12:58:26.705Z,19.74
2023-05-18T13:00:53.629Z,20.31
2023-05-18T13:03:22.015Z,19.48
2023-05-18T13:06:07.025Z,19.57
2023-05-18T13:08:36.137Z,19.42
2023-05-18T13:11:14.444Z,19.83
2023-05-18T13:14:14.323Z,19.32
2023-05-18T13:16:45.637Z,19.04
2023-05-18T13:19:18.988Z,18.69
2023-05-18T13:21:47.087Z,18.86
2023-05-18T13:24:14.490Z,19.61
2023-05-18T13:26:41.472Z,19.40
2023-05-18T13:29:08.683Z,20.29
2023-05-18T13:31:36.020Z,20.45
2023-05-18T13:34:03.652Z,20.66
2023-05-18T13:36:33.632Z,19.84
2023-05-18T13:39:01.455Z,19.90
2023-05-18T13:41:28.358Z,20.66
2023-05-18T13:43:55.357Z,19.70
2023-05-18T13:46:22.316Z,20.25
2023-05-18T13:48:49.205Z,20.85
2023-05-18T13:51:16.266Z,21.24
2023-05-18T13:53:43.232Z,21.31
2023-05-18T13:56:10.082Z,21.22
2023-05-18T13:58:36.987Z,21.44
2023-05-18T14:01:07.985Z,21.38
2023-05-18T14:03:36.551Z,20.85
2023-05-18T14:06:03.844Z,20.38
2023-05-18T14:08:30.678Z,20.47
2023-05-18T14:10:57.540Z,19.98
2023-05-18T14:13:24.397Z,20.24
2023-05-18T14:15:51.483Z,20.21
2023-05-18T14:18:18.430Z,20.18
2023-05-18T14:20:47.466Z,19.70
2023-05-18T14:23:14.496Z,19.72
2023-05-18T14:25:43.534Z,19.93
2023-05-18T14:28:10.413Z,20.01
2023-05-18T14:30:37.439Z,19.82
2023-05-18T14:33:04.600Z,19.79
2023-05-18T14:35:31.617Z,19.42
2023-05-18T14:37:58.501Z,19.47
2023-05-18T14:40:25.457Z,19.83
2023-05-18T14:42:53.780Z,20.13
2023-05-18T14:45:21.156Z,21.05
2023-05-18T14:47:48.224Z,21.34
2023-05-18T14:50:15.306Z,21.05
2023-05-18T14:52:42.142Z,20.48
2023-05-18T14:55:09.574Z,20.53
2023-05-18T14:57:36.475Z,20.35
2023-05-18T15:00:04.430Z,19.72
2023-05-18T15:02:31.376Z,19.48
2023-05-18T15:04:58.333Z,19.50
2023-05-18T15:07:25.206Z,19.13
2023-05-18T15:09:52.145Z,19.36
2023-05-18T15:12:19.662Z,19.45
2023-05-18T15:14:46.611Z,19.00
2023-05-18T15:17:14.967Z,19.21
2023-05-18T15:19:41.924Z,19.24
2023-05-18T15:22:09.009Z,19.06
2023-05-18T15:24:35.943Z,19.03
2023-05-18T15:27:03.472Z,19.07
2023-05-18T15:29:30.492Z,18.98
2023-05-18T15:31:57.398Z,19.04
2023-05-18T15:34:24.302Z,19.09
2023-05-18T15:36:53.336Z,18.91
2023-05-18T15:39:20.753Z,19.03
2023-05-18T15:41:47.631Z,19.00
2023-05-18T15:44:14.549Z,18.73
2023-05-18T15:46:41.422Z,18.95
2023-05-18T15:49:08.332Z,18.96
2023-05-18T15:51:35.233Z,18.95
2023-05-18T15:54:02.079Z,18.66
2023-05-18T15:56:28.962Z,18.93
2023-05-18T15:58:55.894Z,19.01
2023-05-18T16:01:22.882Z,18.81
2023-05-18T16:03:49.846Z,18.78
2023-05-18T16:06:18.459Z,18.70
2023-05-18T16:08:46.090Z,18.71
2023-05-18T16:11:13.053Z,18.67
2023-05-18T16:13:39.916Z,18.54
2023-05-18T16:16:08.843Z,18.69
2023-05-18T16:18:36.577Z,18.69
2023-05-18T16:21:03.634Z,18.47
2023-05-18T16:23:30.510Z,18.26
2023-05-18T16:25:57.587Z,17.92
2023-05-18T16:28:24.456Z,18.13
2023-05-18T16:30:51.313Z,17.79
2023-05-18T16:33:18.210Z,18.00
2023-05-18T16:35:45.111Z,17.82
2023-05-18T16:38:13.236Z,17.86
2023-05-18T16:40:40.203Z,18.02
2023-05-18T16:43:07.064Z,17.86
2023-05-18T16:45:33.998Z,17.88
2023-05-18T16:48:03.593Z,17.73
2023-05-18T16:50:31.620Z,17.84
2023-05-18T16:52:58.715Z,17.82
2023-05-18T16:55:25.817Z,17.62
2023-05-18T16:57:53.050Z,17.70
2023-05-18T17:00:20.755Z,17.63
2023-05-18T17:02:47.839Z,17.71
2023-05-18T17:05:17.122Z,17.69
2023-05-18T17:07:44.063Z,17.51
2023-05-18T17:10:11.131Z,17.67
2023-05-18T17:12:38.449Z,17.62
2023-05-18T17:15:06.020Z,17.73
2023-05-18T17:17:32.958Z,17.70
2023-05-18T17:19:59.864Z,17.58
2023-05-18T17:22:26.740Z,17.67
2023-05-18T17:24:53.751Z,17.79
2023-05-18T17:27:21.481Z,17.77
2023-05-18T17:29:48.314Z,17.62
2023-05-18T17:32:15.531Z,17.61
2023-05-18T17:34:42.401Z,17.31
2023-05-18T17:37:09.352Z,17.22
2023-05-18T17:39:36.200Z,17.23
2023-05-18T17:42:03.309Z,16.73
2023-05-18T17:44:30.274Z,17.10
2023-05-18T17:46:57.985Z,17.18
2023-05-18T17:49:24.968Z,16.96
2023-05-18T17:51:52.382Z,16.98
2023-05-18T17:54:19.255Z,16.93
2023-05-18T17:56:46.582Z,17.07
2023-05-18T17:59:13.616Z,17.09
2023-05-18T18:01:40.871Z,17.07
2023-05-18T18:04:07.786Z,16.79
2023-05-18T18:06:35.691Z,17.08
2023-05-18T18:09:04.646Z,17.04
2023-05-18T18:11:31.700Z,17.00
2023-05-18T18:13:58.658Z,16.89
2023-05-18T18:16:25.689Z,16.71
2023-05-18T18:18:52.759Z,16.96
2023-05-18T18:21:19.711Z,16.88
2023-05-18T18:23:46.621Z,16.91
2023-05-18T18:26:13.488Z,16.57
2023-05-18T18:28:40.466Z,16.40
2023-05-18T18:31:08.233Z,16.59
2023-05-18T18:33:35.392Z,16.18
2023-05-18T18:36:04.366Z,16.41
2023-05-18T18:38:33.799Z,16.27
2023-05-18T18:41:04.102Z,16.20
2023-05-18T18:43:31.390Z,16.32
2023-05-18T18:45:59.151Z,15.96
2023-05-18T18:48:26.229Z,16.16
2023-05-18T18:50:53.717Z,16.06
2023-05-18T18:53:20.619Z,15.76
2023-05-18T18:55:47.563Z,15.50
2023-05-18T18:58:14.457Z,15.97
2023-05-18T19:00:41.496Z,15.87
2023-05-18T19:03:09.909Z,15.86
2023-05-18T19:05:37.413Z,15.80
2023-05-18T19:08:04.412Z,15.87
2023-05-18T19:10:32.857Z,15.68
2023-05-18T19:13:04.909Z,15.92
2023-05-18T19:15:33.870Z,15.77
2023-05-18T19:18:01.192Z,15.84
2023-05-18T19:20:28.382Z,15.69
2023-05-18T19:22:55.381Z,15.58
2023-05-18T19:25:24.521Z,15.76
2023-05-18T19:27:53.115Z,15.80
2023-05-18T19:30:21.576Z,15.30
2023-05-18T19:32:53.289Z,15.30
2023-05-18T19:35:21.799Z,15.48
2023-05-18T19:37:48.724Z,15.53
2023-05-18T19:40:16.702Z,15.56
2023-05-18T19:42:43.970Z,15.54
2023-05-18T19:45:10.862Z,15.49
2023-05-18T19:47:37.809Z,15.39
2023-05-18T19:50:06.159Z,15.46
2023-05-18T19:52:33.511Z,15.46
2023-05-18T19:55:00.556Z,15.44
2023-05-18T19:57:27.548Z,15.39
2023-05-18T19:59:54.441Z,15.35
2023-05-18T20:02:21.381Z,15.36
2023-05-18T20:04:48.445Z,15.44
2023-05-18T20:07:15.350Z,15.24
2023-05-18T20:09:42.216Z,15.41
2023-05-18T20:12:09.120Z,15.34
2023-05-18T20:14:36.717Z,15.31
2023-05-18T20:17:04.658Z,15.21
2023-05-18T20:19:32.440Z,15.24
2023-05-18T20:21:59.419Z,15.08
2023-05-18T20:24:26.290Z,14.86
2023-05-18T20:26:53.782Z,15.20
2023-05-18T20:29:20.669Z,15.22
2023-05-18T20:31:47.782Z,15.19
2023-05-18T20:34:14.783Z,15.11
2023-05-18T20:36:41.629Z,14.78
2023-05-18T20:39:08.988Z,15.10
2023-05-18T20:41:39.930Z,14.97
2023-05-18T20:44:10.548Z,15.19
2023-05-18T20:46:38.369Z,15.13
2023-05-18T20:49:05.568Z,15.12
2023-05-18T20:51:32.482Z,15.03
2023-05-18T20:53:59.332Z,15.00
2023-05-18T20:56:26.726Z,15.04
2023-05-18T20:58:54.467Z,15.12
2023-05-18T21:01:23.913Z,14.77
2023-05-18T21:03:50.902Z,14.98
2023-05-18T21:06:17.901Z,14.88
2023-05-18T21:08:45.634Z,14.82
2023-05-18T21:11:12.583Z,14.83
2023-05-18T21:13:39.526Z,14.84
2023-05-18T21:16:08.349Z,14.75
2023-05-18T21:18:35.964Z,14.70
2023-05-18T21:21:03.537Z,14.58
2023-05-18T21:23:30.807Z,14.54
2023-05-18T21:25:58.093Z,14.47
2023-05-18T21:28:25.040Z,14.44
2023-05-18T21:30:52.537Z,14.39
2023-05-18T21:33:19.811Z,14.30
2023-05-18T21:35:46.876Z,14.34
2023-05-18T21:38:13.886Z,14.19
2023-05-18T21:40:43.529Z,14.27
2023-05-18T21:43:10.968Z,14.26
2023-05-18T21:45:38.605Z,14.32
2023-05-18T21:48:06.216Z,14.46
2023-05-18T21:50:34.899Z,14.39
2023-05-18T21:53:05.682Z,14.49
2023-05-18T21:55:32.940Z,14.46
2023-05-18T21:58:00.159Z,14.44
2023-05-18T22:00:27.232Z,14.46
2023-05-18T22:02:54.462Z,14.47
2023-05-18T22:05:21.490Z,14.40
2023-05-18T22:07:49.171Z,14.43
2023-05-18T22:10:18.001Z,14.43
2023-05-18T22:12:45.175Z,14.38
2023-05-18T22:15:12.499Z,14.36
2023-05-18T22:17:39.488Z,14.22
2023-05-18T22:20:09.391Z,14.34
2023-05-18T22:22:36.377Z,14.31
2023-05-18T22:25:03.486Z,14.14
2023-05-18T22:27:30.465Z,14.20
2023-05-18T22:29:57.492Z,14.11
2023-05-18T22:32:24.802Z,14.06
2023-05-18T22:34:52.063Z,13.98
2023-05-18T22:37:18.977Z,13.90
2023-05-18T22:39:46.033Z,13.86
2023-05-18T22:42:12.887Z,13.83
2023-05-18T22:44:39.771Z,13.74
2023-05-18T22:47:06.815Z,13.71
2023-05-18T22:49:35.846Z,13.57
2023-05-18T22:52:06.520Z,13.57
2023-05-18T22:54:33.510Z,13.48
2023-05-18T22:57:00.402Z,13.46
2023-05-18T22:59:28.681Z,13.38
2023-05-18T23:01:55.742Z,13.32
2023-05-18T23:04:22.703Z,13.17
2023-05-18T23:06:50.788Z,13.06
2023-05-18T23:09:18.715Z,13.14
2023-05-18T23:11:46.341Z,13.05
2023-05-18T23:14:14.175Z,12.96
2023-05-18T23:16:43.070Z,13.00
2023-05-18T23:19:12.319Z,12.99
2023-05-18T23:21:42.649Z,12.98
2023-05-18T23:24:12.048Z,12.98
2023-05-18T23:26:42.766Z,13.00
2023-05-18T23:29:09.914Z,13.01
2023-05-18T23:31:37.623Z,12.99
2023-05-18T23:34:04.851Z,13.01
2023-05-18T23:36:35.489Z,13.10
2023-05-18T23:39:03.612Z,13.17
2023-05-18T23:41:31.938Z,13.21
2023-05-18T23:43:59.601Z,13.25
2023-05-18T23:46:26.852Z,13.24
2023-05-18T23:48:54.121Z,13.23
2023-05-18T23:51:21.599Z,13.14
2023-05-18T23:53:50.730Z,13.22
2023-05-18T23:56:18.395Z,13.20
2023-05-18T23:58:46.933Z,13.21
